Time;durP1;ratioP1;P1;durP2;ratioP2;P2;SDS_P1;SDS_P2;PMS_P1;PMS_P2;Temp;Humidity;BMP_temperature;BMP_pressure;BME280_temperature;BME280_humidity;BME280_pressure;Samples;Min_cycle;Max_cycle;Signal;HPM_P1;HPM_P2
2022/03/22 00:00:09;;;;;;;50.85;39.15;;;;;;;8.52;52.45;102974.94;4800628;29;119709;-90
2022/03/22 00:02:42;;;;;;;50.87;38.80;;;;;;;8.56;52.09;102981.22;4768168;29;122190;-88
2022/03/22 00:05:08;;;;;;;53.47;39.60;;;;;;;8.53;52.44;102978.47;4794905;29;120195;-90
2022/03/22 00:07:33;;;;;;;51.42;38.80;;;;;;;8.41;52.63;102967.81;4781628;29;119511;-91
2022/03/22 00:09:59;;;;;;;50.92;38.60;;;;;;;8.32;52.27;102954.44;4793917;29;119912;-90
2022/03/22 00:12:25;;;;;;;50.35;37.40;;;;;;;8.11;52.20;102929.69;4768906;29;119607;-91
2022/03/22 00:14:50;;;;;;;51.03;39.25;;;;;;;8.30;52.49;102964.97;4753362;29;122706;-90
2022/03/22 00:17:16;;;;;;;46.45;37.33;;;;;;;8.16;52.68;102946.50;4767440;29;123088;-92
2022/03/22 00:19:42;;;;;;;50.58;37.75;;;;;;;8.29;52.03;102968.88;4797987;29;120442;-88
2022/03/22 00:22:10;;;;;;;48.85;37.00;;;;;;;8.13;52.03;102946.47;4780228;29;122002;-88
2022/03/22 00:24:36;;;;;;;49.45;38.30;;;;;;;8.23;52.24;102965.69;4767626;29;122885;-90
2022/03/22 00:27:01;;;;;;;48.55;36.88;;;;;;;8.35;51.95;102983.03;4753218;29;119612;-90
2022/03/22 00:29:27;;;;;;;51.42;38.38;;;;;;;8.27;52.49;102971.97;4801663;29;119763;-90
2022/03/22 00:31:56;;;;;;;48.72;36.85;;;;;;;8.31;52.54;102982.97;4792755;29;119891;-90
2022/03/22 00:34:23;;;;;;;50.75;38.50;;;;;;;8.28;52.76;102978.22;4768318;29;121801;-90
2022/03/22 00:36:50;;;;;;;49.75;36.38;;;;;;;8.04;52.74;102940.53;4779894;29;120014;-90
2022/03/22 00:39:16;;;;;;;48.10;37.45;;;;;;;8.05;53.04;102951.13;4767917;29;119758;-91
2022/03/22 00:41:42;;;;;;;47.08;35.72;;;;;;;8.21;52.33;102976.22;4782809;29;121972;-90
2022/03/22 00:44:08;;;;;;;47.25;35.95;;;;;;;8.26;52.23;102978.59;4780451;29;121126;-89
2022/03/22 00:46:36;;;;;;;44.28;34.13;;;;;;;8.18;52.22;102970.72;4782493;29;119596;-90
2022/03/22 00:49:03;;;;;;;50.08;36.35;;;;;;;7.87;52.40;102929.09;4783649;29;121953;-91
2022/03/22 00:51:29;;;;;;;44.97;35.03;;;;;;;7.82;51.78;102923.97;4770535;29;123913;-88
2022/03/22 00:53:55;;;;;;;44.88;35.70;;;;;;;8.14;51.81;102969.91;4768123;29;119672;-91
2022/03/22 00:56:20;;;;;;;45.67;34.75;;;;;;;8.18;51.81;102984.41;4779801;29;123434;-90
2022/03/22 01:00:01;;;;;;;46.92;35.53;;;;;;;8.12;52.47;102972.25;4766510;29;120027;-90
2022/03/22 01:01:34;;;;;;;46.50;33.38;;;;;;;7.96;51.65;102965.06;4780482;29;122440;-91
2022/03/22 01:04:00;;;;;;;48.53;33.60;;;;;;;7.95;51.86;102958.03;4774516;29;123761;-89
2022/03/22 01:06:25;;;;;;;46.22;34.13;;;;;;;8.08;51.90;102985.09;4748079;29;119838;-91
2022/03/22 01:08:51;;;;;;;42.65;34.42;;;;;;;8.06;51.81;102981.97;4750237;29;122172;-91
2022/03/22 01:11:17;;;;;;;47.47;33.90;;;;;;;7.93;52.16;102968.56;4766214;29;123323;-89
2022/03/22 01:13:42;;;;;;;46.05;35.13;;;;;;;7.94;51.69;102964.66;4801848;29;119430;-91
2022/03/22 01:16:08;;;;;;;45.10;34.50;;;;;;;7.98;51.76;102979.16;4766984;29;119986;-88
2022/03/22 01:18:34;;;;;;;43.05;34.50;;;;;;;7.90;51.89;102968.53;4766951;29;119825;-90
2022/03/22 01:20:59;;;;;;;45.35;35.03;;;;;;;7.94;51.45;102975.59;4751609;29;123182;-90
2022/03/22 01:23:26;;;;;;;44.70;34.90;;;;;;;7.88;51.45;102974.38;4782070;29;122789;-90
2022/03/22 01:25:52;;;;;;;43.35;33.95;;;;;;;7.83;51.42;102966.53;4776585;29;119755;-90
2022/03/22 01:28:21;;;;;;;46.33;33.67;;;;;;;7.84;51.15;102970.84;4782574;29;119356;-90
2022/03/22 01:30:46;;;;;;;45.58;33.63;;;;;;;7.80;51.07;102961.78;4766014;29;122979;-92
2022/03/22 01:33:12;;;;;;;46.38;34.70;;;;;;;7.82;51.67;102970.41;4794264;29;119883;-91
2022/03/22 01:35:38;;;;;;;44.78;33.65;;;;;;;7.82;51.77;102967.69;4780407;29;122253;-88
2022/03/22 01:38:04;;;;;;;44.88;33.30;;;;;;;7.78;50.72;102966.84;4799806;29;119924;-92
2022/03/22 01:40:30;;;;;;;45.45;34.22;;;;;;;7.80;51.80;102966.47;4782469;29;122218;-91
2022/03/22 01:42:57;;;;;;;45.58;34.28;;;;;;;7.57;52.05;102939.31;4751324;29;123649;-89
2022/03/22 01:45:23;;;;;;;47.63;32.95;;;;;;;7.75;51.82;102964.88;4782296;29;119987;-92
2022/03/22 01:47:49;;;;;;;43.20;33.97;;;;;;;7.64;51.95;102950.31;4779931;29;122136;-91
2022/03/22 01:50:19;;;;;;;46.17;34.35;;;;;;;7.77;51.32;102968.00;4752078;29;122491;-91
2022/03/22 01:52:45;;;;;;;46.63;33.70;;;;;;;7.70;51.33;102962.47;4782672;29;120406;-91
2022/03/22 01:55:17;;;;;;;44.03;34.08;;;;;;;7.70;51.78;102974.19;4785266;29;122312;-89
2022/03/22 01:57:43;;;;;;;45.20;33.72;;;;;;;7.56;51.90;102945.94;4766591;29;119419;-90
2022/03/22 02:00:19;;;;;;;43.42;32.67;;;;;;;7.56;52.45;102954.13;4794095;29;119284;-92
2022/03/22 02:05:51;;;;;;;45.88;32.92;;;;;;;7.57;51.62;102961.97;4798708;29;119762;-90
2022/03/22 02:08:19;;;;;;;45.33;32.42;;;;;;;7.56;51.89;102951.38;4780886;29;119815;-91
2022/03/22 02:10:45;;;;;;;46.72;31.98;;;;;;;7.57;52.17;102964.69;4782092;29;120082;-92
2022/03/22 02:13:12;;;;;;;47.25;32.60;;;;;;;7.26;52.18;102922.19;4767158;29;122448;-89
2022/03/22 02:15:38;;;;;;;43.78;32.92;;;;;;;7.17;52.22;102912.75;4767454;29;122377;-90
2022/03/22 02:18:04;;;;;;;45.90;32.10;;;;;;;7.14;51.72;102914.28;4783148;29;123182;-91
2022/03/22 02:20:30;;;;;;;45.95;33.20;;;;;;;7.42;51.77;102954.75;4794790;29;120230;-91
2022/03/22 02:23:06;;;;;;;44.75;34.17;;;;;;;7.21;51.84;102933.47;4796316;29;120820;-88
2022/03/22 02:25:35;;;;;;;44.03;34.50;;;;;;;7.38;52.05;102960.19;4780830;29;120649;-89
2022/03/22 02:28:03;;;;;;;44.40;34.33;;;;;;;7.24;52.37;102934.66;4782910;29;122059;-89
2022/03/22 02:30:29;;;;;;;46.15;32.70;;;;;;;7.35;52.52;102957.44;4781885;29;122868;-88
2022/03/22 02:32:59;;;;;;;45.95;31.70;;;;;;;7.33;52.33;102949.59;4782093;29;120673;-91
2022/03/22 02:35:25;;;;;;;46.47;33.78;;;;;;;7.13;52.60;102925.56;4778981;29;119620;-90
2022/03/22 02:37:51;;;;;;;45.53;32.78;;;;;;;7.25;52.59;102942.47;4778160;29;121767;-90
2022/03/22 02:40:18;;;;;;;46.08;33.67;;;;;;;7.28;52.74;102952.66;4786074;29;119934;-88
2022/03/22 02:42:49;;;;;;;45.53;33.58;;;;;;;7.27;52.84;102942.88;4766028;29;122923;-91
2022/03/22 02:45:15;;;;;;;47.83;32.88;;;;;;;7.26;52.98;102946.78;4775324;29;119456;-89
2022/03/22 02:47:42;;;;;;;45.10;31.85;;;;;;;7.21;52.29;102936.19;4767153;29;122402;-89
2022/03/22 02:50:11;;;;;;;45.83;33.22;;;;;;;7.22;52.73;102935.03;4764633;29;123831;-89
2022/03/22 02:52:38;;;;;;;47.17;32.25;;;;;;;7.28;52.71;102946.41;4766454;29;119945;-91
2022/03/22 02:55:06;;;;;;;48.25;32.78;;;;;;;7.18;52.85;102936.94;4765483;29;122371;-90
2022/03/22 02:57:37;;;;;;;43.03;31.83;;;;;;;7.25;52.73;102949.88;4778955;29;122679;-90
2022/03/22 03:00:06;;;;;;;45.22;31.60;;;;;;;7.21;53.06;102954.50;4763836;29;119419;-90
2022/03/22 03:02:31;;;;;;;45.30;31.77;;;;;;;7.12;53.02;102935.69;4754502;29;121532;-91
2022/03/22 03:04:57;;;;;;;45.60;33.00;;;;;;;7.25;52.69;102952.59;4766179;29;119546;-90
2022/03/22 03:07:23;;;;;;;45.00;31.70;;;;;;;7.11;52.38;102939.59;4766258;29;122517;-91
2022/03/22 03:09:50;;;;;;;45.30;32.80;;;;;;;7.08;52.47;102940.31;4766531;29;121717;-89
2022/03/22 03:12:16;;;;;;;48.58;32.15;;;;;;;7.08;52.64;102951.22;4781957;29;119513;-89
2022/03/22 03:14:43;;;;;;;44.83;32.17;;;;;;;6.87;52.74;102910.03;4765664;29;121814;-90
2022/03/22 03:17:13;;;;;;;45.30;31.95;;;;;;;7.10;52.58;102951.66;4778705;29;122722;-90
2022/03/22 03:19:39;;;;;;;44.78;31.85;;;;;;;6.86;52.71;102914.72;4780493;29;120032;-89
2022/03/22 03:22:05;;;;;;;44.38;33.63;;;;;;;7.06;53.03;102953.53;4780460;29;122538;-90
2022/03/22 03:24:32;;;;;;;48.88;32.97;;;;;;;7.10;52.38;102951.66;4768402;29;120725;-88
2022/03/22 03:27:00;;;;;;;40.58;30.20;;;;;;;6.91;52.16;102922.56;4762474;29;125557;-89
2022/03/22 03:29:26;;;;;;;46.95;32.45;;;;;;;6.79;52.86;102917.31;4762644;29;131632;-90
2022/03/22 03:31:52;;;;;;;47.42;32.47;;;;;;;7.06;52.96;102956.25;4780388;29;120076;-90
2022/03/22 03:34:18;;;;;;;45.80;33.35;;;;;;;6.68;52.91;102909.00;4793142;29;119661;-90
2022/03/22 03:36:44;;;;;;;49.78;33.75;;;;;;;6.89;53.43;102949.44;4781256;29;122568;-90
2022/03/22 03:39:11;;;;;;;47.78;33.00;;;;;;;6.98;52.77;102960.84;4782023;29;119536;-90
2022/03/22 03:41:59;;;;;;;46.05;32.30;;;;;;;7.03;52.96;102968.72;4766696;29;122914;-91
2022/03/22 03:47:22;;;;;;;46.05;31.27;;;;;;;6.98;53.10;102960.84;4770687;29;120683;-91
2022/03/22 03:49:54;;;;;;;46.03;30.98;;;;;;;6.97;53.23;102963.97;4766557;29;123082;-90
2022/03/22 03:52:29;;;;;;;46.78;32.42;;;;;;;6.94;53.15;102959.25;4767449;29;119782;-90
2022/03/22 03:54:56;;;;;;;45.75;33.08;;;;;;;6.90;53.38;102959.19;4762508;29;121713;-90
2022/03/22 03:57:22;;;;;;;46.20;32.85;;;;;;;6.89;53.66;102954.13;4764631;29;120803;-90
2022/03/22 03:59:49;;;;;;;46.47;33.30;;;;;;;6.85;53.67;102945.06;4778369;29;119571;-90
2022/03/22 04:02:16;;;;;;;48.55;33.00;;;;;;;6.93;53.37;102961.19;4804430;29;122215;-90
2022/03/22 04:04:43;;;;;;;43.40;31.65;;;;;;;6.70;53.08;102923.06;4780875;29;123147;-89
2022/03/22 04:07:11;;;;;;;48.60;32.92;;;;;;;6.94;52.92;102956.50;4753046;29;119448;-90
2022/03/22 04:09:55;;;;;;;45.20;32.78;;;;;;;6.94;53.38;102967.44;4768051;29;119974;-91
2022/03/22 04:12:22;;;;;;;47.78;32.15;;;;;;;6.86;53.09;102955.63;4801776;29;119993;-89
2022/03/22 04:14:50;;;;;;;46.47;32.58;;;;;;;6.88;53.22;102972.44;4781622;29;122310;-90
2022/03/22 04:17:17;;;;;;;45.75;32.65;;;;;;;6.89;53.31;102962.28;4753163;29;123594;-89
2022/03/22 04:19:43;;;;;;;49.20;33.05;;;;;;;6.81;53.22;102958.66;4763869;29;119470;-91
2022/03/22 04:22:08;;;;;;;45.47;31.95;;;;;;;6.92;53.46;102981.44;4753038;29;122260;-89
2022/03/22 04:24:53;;;;;;;44.53;32.30;;;;;;;6.80;53.50;102962.56;4784177;29;120919;-92
2022/03/22 04:33:05;;;;;;;47.47;32.80;;;;;;;6.82;53.67;102973.09;4784481;29;119813;-92
2022/03/22 04:35:31;;;;;;;45.90;32.92;;;;;;;6.81;53.85;102974.25;4776763;29;122187;-91
2022/03/22 04:37:56;;;;;;;46.95;32.58;;;;;;;6.72;53.65;102964.41;4784025;29;120582;-90
2022/03/22 04:40:25;;;;;;;47.47;32.53;;;;;;;6.72;53.71;102967.13;4779826;29;119951;-90
2022/03/22 04:42:51;;;;;;;45.33;31.92;;;;;;;6.76;54.02;102970.69;4768477;29;122184;-90
2022/03/22 04:45:17;;;;;;;47.78;33.13;;;;;;;6.74;53.56;102973.00;4767438;29;122934;-91
2022/03/22 04:47:45;;;;;;;45.42;31.45;;;;;;;6.71;53.47;102971.00;4783094;29;121312;-89
2022/03/22 04:50:12;;;;;;;42.85;30.88;;;;;;;6.58;53.60;102947.81;4797887;29;119649;-90
2022/03/22 04:58:07;;;;;;;49.05;32.65;;;;;;;6.65;53.71;102972.50;4768055;29;123155;-91
2022/03/22 05:00:36;;;;;;;50.13;32.13;;;;;;;6.72;53.60;102982.72;4784029;29;119643;-89
2022/03/22 05:03:03;;;;;;;50.55;33.25;;;;;;;6.67;53.86;102974.84;4783902;29;122351;-89
2022/03/22 05:08:12;;;;;;;;;;;;;;;6.71;54.14;102994.78;4768439;29;119821;-89
2022/03/22 05:10:38;;;;;;;53.55;34.35;;;;;;;6.66;54.14;102992.38;4769305;29;121589;-91
2022/03/22 05:13:04;;;;;;;47.40;33.55;;;;;;;6.72;54.41;103005.31;4782795;29;120167;-89
2022/03/22 05:15:32;;;;;;;47.55;32.78;;;;;;;6.74;54.17;103011.19;4780784;29;120273;-90
2022/03/22 05:17:58;;;;;;;45.00;32.10;;;;;;;6.59;54.33;102984.84;4767767;29;120060;-90
2022/03/22 05:20:28;;;;;;;49.50;32.53;;;;;;;6.73;54.24;103009.63;4768288;29;119903;-90
2022/03/22 05:22:53;;;;;;;50.03;33.97;;;;;;;6.66;53.98;103000.56;4784789;29;122465;-90
2022/03/22 05:25:20;;;;;;;54.08;35.28;;;;;;;6.59;53.60;103003.94;4774898;29;122721;-89
2022/03/22 05:27:45;;;;;;;45.80;32.53;;;;;;;6.68;54.03;103015.38;4767674;29;119831;-91
2022/03/22 05:30:11;;;;;;;47.88;33.30;;;;;;;6.57;53.98;102997.28;4766527;29;122602;-90
2022/03/22 05:32:37;;;;;;;48.65;33.53;;;;;;;6.63;54.08;103015.72;4782604;29;122801;-92
2022/03/22 05:35:03;;;;;;;51.55;33.75;;;;;;;6.67;54.17;103018.47;4798231;29;123880;-89
2022/03/22 05:37:28;;;;;;;52.00;33.25;;;;;;;6.58;53.91;102996.91;4771557;29;121067;-89
2022/03/22 05:39:54;;;;;;;48.05;34.17;;;;;;;6.64;54.59;103008.31;4783554;29;119934;-90
2022/03/22 05:42:23;;;;;;;50.45;33.42;;;;;;;6.53;54.48;102988.25;4778860;29;121928;-90
2022/03/22 05:44:49;;;;;;;47.75;33.17;;;;;;;6.69;54.08;103011.50;4766771;29;122676;-90
2022/03/22 05:47:15;;;;;;;51.50;33.13;;;;;;;6.65;54.15;102999.75;4767696;29;119824;-90
2022/03/22 05:49:41;;;;;;;45.53;32.90;;;;;;;6.69;54.01;103011.50;4767889;29;121841;-91
2022/03/22 05:52:07;;;;;;;48.28;31.65;;;;;;;6.74;53.91;103011.19;4782334;29;121875;-91
2022/03/22 05:54:34;;;;;;;49.65;32.08;;;;;;;6.74;53.39;103013.91;4766245;29;119936;-90
2022/03/22 05:57:00;;;;;;;48.10;32.20;;;;;;;6.59;53.33;102992.25;4770651;29;122148;-91
2022/03/22 05:59:26;;;;;;;47.47;32.38;;;;;;;6.45;53.86;102971.78;4766231;29;119808;-90
2022/03/22 06:01:52;;;;;;;41.53;31.13;;;;;;;6.74;53.60;103008.47;4768104;29;121622;-90
2022/03/22 06:04:19;;;;;;;49.85;32.67;;;;;;;6.63;53.83;102993.09;4766605;29;123307;-89
2022/03/22 06:06:47;;;;;;;50.65;32.15;;;;;;;6.80;54.28;103019.06;4752292;29;119885;-89
2022/03/22 06:09:13;;;;;;;47.40;31.70;;;;;;;6.70;54.42;102982.28;4767106;29;122266;-89
2022/03/22 06:11:38;;;;;;;52.58;33.72;;;;;;;6.95;54.74;103009.94;4782127;29;122410;-90
2022/03/22 06:14:09;;;;;;;46.42;32.55;;;;;;;6.85;54.76;102989.50;4782914;29;119988;-89
2022/03/22 06:16:34;;;;;;;50.53;31.88;;;;;;;6.84;54.23;102981.69;4751022;29;122784;-90
2022/03/22 06:19:00;;;;;;;47.30;31.30;;;;;;;7.01;54.28;102997.53;4785350;29;120057;-90
2022/03/22 06:21:26;;;;;;;45.88;32.83;;;;;;;7.25;54.36;103024.38;4779367;29;119525;-92
2022/03/22 06:23:52;;;;;;;46.45;33.03;;;;;;;7.19;54.28;102997.78;4783961;29;120185;-90
2022/03/22 06:26:18;;;;;;;40.88;32.58;;;;;;;7.43;53.88;103018.34;4751919;29;120166;-91
2022/03/22 06:28:44;;;;;;;45.20;34.05;;;;;;;7.48;54.48;103026.22;4766079;29;119784;-90
2022/03/22 06:31:10;;;;;;;47.53;32.67;;;;;;;7.31;54.50;102992.06;4791550;29;122833;-89
2022/03/22 06:33:36;;;;;;;52.47;34.78;;;;;;;7.62;54.76;103031.88;4784430;29;119769;-90
2022/03/22 06:36:02;;;;;;;50.35;34.60;;;;;;;7.41;54.85;102993.38;4750376;29;122169;-91
2022/03/22 06:38:32;;;;;;;50.47;34.70;;;;;;;7.77;55.11;103028.13;4794345;29;120214;-91
2022/03/22 06:40:59;;;;;;;51.67;35.10;;;;;;;7.72;55.30;103009.34;4771566;29;120061;-89
2022/03/22 06:43:25;;;;;;;53.55;34.00;;;;;;;8.02;55.22;103034.63;4747666;29;123233;-90
2022/03/22 06:45:51;;;;;;;55.50;35.55;;;;;;;8.13;55.05;103037.47;4776092;29;121344;-89
2022/03/22 06:48:17;;;;;;;52.80;36.65;;;;;;;7.92;55.04;102999.78;4767093;29;122358;-91
2022/03/22 06:50:45;;;;;;;50.50;35.25;;;;;;;8.08;55.04;103005.03;4777741;29;122872;-90
2022/03/22 06:53:10;;;;;;;50.08;34.00;;;;;;;8.41;54.68;103039.72;4766989;29;120156;-91
2022/03/22 06:55:37;;;;;;;50.45;36.35;;;;;;;8.57;54.88;103039.47;4781641;29;120248;-90
2022/03/22 06:58:05;;;;;;;46.83;34.58;;;;;;;8.64;54.94;103038.72;4777177;29;122840;-89
2022/03/22 07:00:31;;;;;;;47.03;33.53;;;;;;;8.66;54.76;103022.72;4782133;29;119642;-89
2022/03/22 07:02:58;;;;;;;46.67;33.80;;;;;;;8.81;54.10;103027.13;4768239;29;121616;-90
2022/03/22 07:05:24;;;;;;;47.63;33.75;;;;;;;8.84;53.82;103018.16;4764854;29;119879;-91
2022/03/22 07:07:50;;;;;;;47.10;34.25;;;;;;;9.11;53.96;103041.38;4765765;29;122433;-90
2022/03/22 07:10:18;;;;;;;47.30;32.25;;;;;;;9.12;52.69;103034.75;4790782;29;120277;-91
2022/03/22 07:12:51;;;;;;;40.58;30.15;;;;;;;8.93;52.02;102977.53;4797295;29;120170;-90
2022/03/22 07:15:38;;;;;;;44.15;29.23;;;;;;;9.32;50.63;103031.72;4751008;29;121848;-90
2022/03/22 07:18:07;;;;;;;39.58;29.52;;;;;;;9.42;50.71;103025.50;4797170;29;120073;-88
2022/03/22 07:20:33;;;;;;;39.50;28.17;;;;;;;9.56;49.73;103041.22;4750606;29;120675;-90
2022/03/22 07:22:59;;;;;;;34.42;25.63;;;;;;;9.62;48.55;103034.97;4774936;29;122700;-88
2022/03/22 07:25:25;;;;;;;36.08;25.55;;;;;;;9.63;48.97;103025.56;4798743;29;123261;-90
2022/03/22 07:27:51;;;;;;;36.80;25.98;;;;;;;9.85;49.18;103038.16;4775948;29;122394;-89
2022/03/22 07:30:17;;;;;;;34.78;25.90;;;;;;;9.90;48.95;103031.53;4764449;29;120039;-90
2022/03/22 07:32:44;;;;;;;35.33;28.33;;;;;;;10.09;50.53;103046.84;4751550;29;119724;-93
2022/03/22 07:35:11;;;;;;;36.75;27.80;;;;;;;10.23;50.43;103046.91;4766091;29;122218;-90
2022/03/22 07:37:38;;;;;;;46.20;28.15;;;;;;;10.36;50.50;103055.53;4781341;29;120145;-92
2022/03/22 07:40:06;;;;;;;47.50;29.55;;;;;;;10.49;51.24;103045.75;4766022;29;119419;-89
2022/03/22 07:42:32;;;;;;;40.03;28.95;;;;;;;10.43;51.48;103030.84;4780628;29;119622;-89
2022/03/22 07:45:01;;;;;;;46.72;27.83;;;;;;;10.41;50.91;103014.00;4781272;29;123251;-89
2022/03/22 07:47:28;;;;;;;36.33;26.70;;;;;;;10.59;50.72;103019.44;4771832;29;119420;-91
2022/03/22 07:55:24;;;;;;;31.92;23.55;;;;;;;11.22;48.75;103061.72;4768834;29;122157;-92
2022/03/22 07:57:50;;;;;;;39.33;26.92;;;;;;;11.37;50.68;103064.03;4767511;29;121809;-91
2022/03/22 08:00:18;;;;;;;32.50;24.63;;;;;;;11.45;49.67;103059.28;4752725;29;119928;-90
2022/03/22 08:02:54;;;;;;;35.05;25.30;;;;;;;11.64;49.51;103069.03;4784095;29;119406;-91
2022/03/22 08:05:21;;;;;;;33.92;25.25;;;;;;;11.82;50.13;103075.25;4781068;29;123861;-88
2022/03/22 08:07:49;;;;;;;36.20;25.45;;;;;;;11.84;50.11;103053.66;4784406;29;119824;-91
2022/03/22 08:10:15;;;;;;;29.80;23.80;;;;;;;11.98;49.89;103063.78;4794467;29;121272;-90
2022/03/22 08:12:41;;;;;;;29.63;21.02;;;;;;;12.07;48.11;103053.13;4781592;29;119620;-90
2022/03/22 08:15:11;;;;;;;26.63;20.35;;;;;;;12.26;46.29;103060.81;4767647;29;122130;-88
2022/03/22 08:17:38;;;;;;;30.50;20.55;;;;;;;12.48;45.49;103077.97;4794789;29;123001;-90
2022/03/22 08:20:05;;;;;;;25.60;20.35;;;;;;;12.59;45.01;103064.13;4780930;29;120356;-90
2022/03/22 08:22:32;;;;;;;24.55;19.20;;;;;;;12.70;42.88;103075.81;4798985;29;120277;-91
2022/03/22 08:24:59;;;;;;;31.25;20.65;;;;;;;12.65;42.91;103057.00;4766650;29;122831;-91
2022/03/22 08:27:24;;;;;;;25.52;20.15;;;;;;;12.67;43.13;103053.81;4767973;29;119754;-90
2022/03/22 08:29:51;;;;;;;28.95;20.70;;;;;;;12.84;43.40;103048.16;4756910;29;121808;-91
2022/03/22 08:32:17;;;;;;;24.77;19.55;;;;;;;13.09;42.17;103069.94;4782955;29;119784;-91
2022/03/22 08:34:42;;;;;;;26.08;19.17;;;;;;;13.14;40.97;103071.47;4781463;29;120044;-90
2022/03/22 08:37:08;;;;;;;25.20;19.85;;;;;;;13.23;42.41;103068.25;4799169;29;120193;-90
2022/03/22 08:39:34;;;;;;;25.45;18.98;;;;;;;13.37;41.63;103076.34;4783699;29;119933;-90
2022/03/22 08:41:59;;;;;;;30.88;21.23;;;;;;;13.40;42.34;103068.03;4760825;29;122481;-91
2022/03/22 08:44:25;;;;;;;28.80;21.10;;;;;;;13.51;42.05;103070.69;4754814;29;123163;-90
2022/03/22 08:46:51;;;;;;;31.25;20.05;;;;;;;13.62;42.27;103070.53;4799739;29;120495;-89
2022/03/22 08:49:17;;;;;;;28.63;19.90;;;;;;;13.66;41.15;103068.50;4768007;29;122901;-90
2022/03/22 08:51:43;;;;;;;29.27;19.52;;;;;;;13.78;39.54;103076.25;4769511;29;123159;-90
2022/03/22 08:54:09;;;;;;;27.25;20.35;;;;;;;13.70;41.74;103053.47;4767854;29;120163;-91
2022/03/22 08:56:34;;;;;;;27.85;20.52;;;;;;;13.85;41.82;103062.34;4782451;29;119966;-91
2022/03/22 08:59:01;;;;;;;27.75;20.73;;;;;;;13.78;41.24;103038.41;4766994;29;122105;-91
2022/03/22 09:01:30;;;;;;;33.63;21.48;;;;;;;13.96;41.49;103062.19;4795828;29;119810;-90
2022/03/22 09:06:40;;;;;;;;;;;;;;;14.10;42.01;103068.28;4782788;29;119705;-91
2022/03/22 09:09:06;;;;;;;27.83;20.70;;;;;;;14.18;42.40;103070.94;4768158;29;121580;-90
2022/03/22 09:11:34;;;;;;;27.58;19.95;;;;;;;14.19;41.70;103064.22;4775886;29;122579;-90
2022/03/22 09:14:00;;;;;;;26.60;20.60;;;;;;;14.31;42.65;103074.69;4786847;29;119834;-90
2022/03/22 09:16:26;;;;;;;28.92;21.02;;;;;;;14.25;40.12;103054.28;4798219;29;120062;-92
2022/03/22 09:18:52;;;;;;;28.10;19.75;;;;;;;14.29;40.78;103050.25;4777093;29;119463;-91
2022/03/22 09:21:18;;;;;;;26.52;21.55;;;;;;;14.23;43.01;103038.13;4776174;29;121885;-90
2022/03/22 09:23:44;;;;;;;30.23;21.75;;;;;;;14.48;43.98;103072.88;4782249;29;122999;-90
2022/03/22 09:26:10;;;;;;;25.33;20.77;;;;;;;14.36;42.54;103046.59;4767531;29;119582;-90
2022/03/22 09:28:37;;;;;;;23.98;20.27;;;;;;;14.55;42.13;103075.53;4793933;29;119481;-89
2022/03/22 09:31:02;;;;;;;27.83;21.90;;;;;;;14.26;44.13;103023.50;4782399;29;120925;-91
2022/03/22 09:33:30;;;;;;;26.25;21.40;;;;;;;14.64;41.86;103073.78;4767364;29;120346;-90
2022/03/22 09:35:57;;;;;;;27.25;22.30;;;;;;;14.41;42.15;103035.06;4785859;29;121899;-90
2022/03/22 09:38:24;;;;;;;29.80;23.02;;;;;;;14.69;42.87;103078.84;4780538;29;119488;-90
2022/03/22 09:40:53;;;;;;;32.58;21.90;;;;;;;14.46;43.51;103033.88;4765693;29;119590;-91
2022/03/22 09:43:19;;;;;;;32.67;21.45;;;;;;;14.55;42.24;103043.16;4781046;29;123112;-91
2022/03/22 09:45:45;;;;;;;27.77;22.00;;;;;;;14.69;42.20;103053.97;4782592;29;119994;-90
2022/03/22 09:48:11;;;;;;;31.65;23.20;;;;;;;14.78;41.98;103066.44;4763380;29;122385;-90
2022/03/22 09:53:24;;;;;;;29.42;21.88;;;;;;;14.75;42.05;103054.25;4780761;29;119873;-91
2022/03/22 09:55:50;;;;;;;28.63;23.20;;;;;;;14.81;43.94;103049.03;4763949;29;122390;-91
2022/03/22 09:58:15;;;;;;;29.85;22.80;;;;;;;14.94;42.55;103069.31;4768137;29;123869;-91
2022/03/22 10:00:44;;;;;;;29.60;22.48;;;;;;;14.93;42.50;103057.50;4764149;29;123020;-90
2022/03/22 10:03:20;;;;;;;27.08;22.67;;;;;;;14.92;41.73;103055.94;4765146;29;123497;-90
2022/03/22 10:05:59;;;;;;;29.23;21.40;;;;;;;14.86;41.73;103038.25;4781596;29;120465;-90
2022/03/22 10:08:25;;;;;;;30.85;21.52;;;;;;;14.93;40.92;103053.94;4777567;29;122660;-91
2022/03/22 10:11:00;;;;;;;28.60;21.52;;;;;;;15.05;42.27;103056.06;4767099;29;122822;-91
2022/03/22 10:13:28;;;;;;;27.08;20.75;;;;;;;14.92;40.58;103030.28;4797091;29;119868;-91
2022/03/22 10:16:04;;;;;;;30.65;22.33;;;;;;;15.09;39.21;103051.25;4778888;29;122059;-90
2022/03/22 10:18:39;;;;;;;28.50;22.10;;;;;;;15.17;40.40;103054.69;4786762;29;123354;-91
2022/03/22 10:21:05;;;;;;;30.20;21.63;;;;;;;15.22;40.79;103056.94;4777922;29;122109;-90
2022/03/22 10:23:33;;;;;;;28.15;22.00;;;;;;;15.20;40.60;103046.31;4783045;29;120360;-91
2022/03/22 10:26:07;;;;;;;28.45;22.73;;;;;;;15.38;38.43;103062.56;4752615;29;119984;-91
2022/03/22 10:28:35;;;;;;;29.15;21.40;;;;;;;15.34;38.87;103040.47;4791461;29;120664;-90
2022/03/22 10:31:01;;;;;;;31.23;23.23;;;;;;;15.51;40.34;103054.38;4750859;29;122901;-91
2022/03/22 10:33:26;;;;;;;33.00;21.55;;;;;;;15.39;39.95;103027.38;4790729;29;121130;-91
2022/03/22 10:35:55;;;;;;;25.75;20.90;;;;;;;15.55;38.96;103041.25;4764968;29;122715;-91
2022/03/22 10:38:23;;;;;;;26.27;21.50;;;;;;;15.52;38.53;103022.72;4766432;29;122952;-91
2022/03/22 10:40:49;;;;;;;26.92;21.33;;;;;;;15.42;38.76;102998.88;4770999;29;119915;-90
2022/03/22 10:43:18;;;;;;;29.52;21.58;;;;;;;15.80;38.17;103055.34;4764858;29;123346;-91
2022/03/22 10:45:48;;;;;;;30.60;22.17;;;;;;;15.81;38.83;103047.81;4746665;29;120157;-91
2022/03/22 10:48:19;;;;;;;32.95;22.70;;;;;;;15.72;38.11;103031.81;4765979;29;122589;-91
2022/03/22 10:50:47;;;;;;;28.77;22.20;;;;;;;15.70;38.22;103023.16;4777667;29;121640;-91
2022/03/22 10:53:17;;;;;;;27.50;21.88;;;;;;;15.92;38.82;103051.91;4758150;29;119955;-91
2022/03/22 10:55:44;;;;;;;29.70;23.23;;;;;;;16.01;37.70;103056.06;4764525;29;122301;-90
2022/03/22 10:58:14;;;;;;;29.70;22.67;;;;;;;16.03;38.10;103046.13;4776554;29;123007;-91
2022/03/22 11:00:43;;;;;;;31.05;22.65;;;;;;;15.82;38.69;103013.41;4765890;29;119674;-91
2022/03/22 11:03:10;;;;;;;29.38;22.95;;;;;;;15.95;39.25;103023.38;4780970;29;122297;-91
2022/03/22 11:05:36;;;;;;;29.30;23.42;;;;;;;16.17;38.97;103056.88;4796738;29;121255;-91
2022/03/22 11:08:03;;;;;;;26.48;21.33;;;;;;;16.19;37.99;103059.22;4764872;29;122366;-91
2022/03/22 11:10:29;;;;;;;32.20;24.08;;;;;;;16.11;37.88;103024.59;4765266;29;123420;-91
2022/03/22 11:13:00;;;;;;;32.60;22.33;;;;;;;16.22;38.10;103033.41;4797863;29;119844;-91
2022/03/22 11:15:28;;;;;;;28.60;23.73;;;;;;;16.11;37.23;103021.84;4748960;29;125261;-90
2022/03/22 11:17:56;;;;;;;26.02;22.75;;;;;;;16.12;36.58;103010.31;4762484;29;123122;-90
2022/03/22 11:20:25;;;;;;;31.85;24.13;;;;;;;16.13;36.35;103002.78;4765045;29;120215;-91
2022/03/22 11:22:55;;;;;;;29.83;23.05;;;;;;;16.40;37.22;103044.84;4766058;29;124691;-90
2022/03/22 11:25:32;;;;;;;28.90;23.30;;;;;;;16.41;37.24;103031.78;4784080;29;123337;-91
2022/03/22 11:28:03;;;;;;;31.23;22.95;;;;;;;16.35;36.21;103017.69;4795479;29;120144;-91
2022/03/22 11:30:29;;;;;;;26.05;21.35;;;;;;;16.47;36.22;103036.34;4780331;29;123160;-92
2022/03/22 11:35:44;;;;;;;31.02;23.45;;;;;;;16.57;36.66;103038.09;4790799;29;122406;-92
2022/03/22 11:38:11;;;;;;;28.80;23.02;;;;;;;16.59;37.62;103034.88;4748093;29;123245;-91
2022/03/22 11:43:42;;;;;;;34.53;24.73;;;;;;;16.64;37.07;103034.34;4777480;29;122414;-90